sensor_id;sensor_type;location;lat;lon;timestamp;P1;durP1;ratioP1;P2;durP2;ratioP2
6651;SDS011;3362;50.892;10.692;2022-11-15T00:02:26;3.22;;;1.55;;
6651;SDS011;3362;50.892;10.692;2022-11-15T00:04:53;3.35;;;2.20;;
6651;SDS011;3362;50.892;10.692;2022-11-15T00:07:19;1.88;;;1.45;;
6651;SDS011;3362;50.892;10.692;2022-11-15T00:09:46;2.72;;;1.48;;
6651;SDS011;3362;50.892;10.692;2022-11-15T00:12:12;2.05;;;1.55;;
6651;SDS011;3362;50.892;10.692;2022-11-15T00:14:38;3.10;;;1.65;;
6651;SDS011;3362;50.892;10.692;2022-11-15T00:17:05;5.30;;;1.45;;
6651;SDS011;3362;50.892;10.692;2022-11-15T00:19:31;3.65;;;1.60;;
6651;SDS011;3362;50.892;10.692;2022-11-15T00:21:59;2.95;;;2.05;;
6651;SDS011;3362;50.892;10.692;2022-11-15T00:24:25;1.85;;;1.30;;
6651;SDS011;3362;50.892;10.692;2022-11-15T00:26:52;4.45;;;1.65;;
6651;SDS011;3362;50.892;10.692;2022-11-15T00:29:18;3.40;;;1.98;;
6651;SDS011;3362;50.892;10.692;2022-11-15T00:31:44;2.55;;;1.67;;
6651;SDS011;3362;50.892;10.692;2022-11-15T00:34:10;3.30;;;1.60;;
6651;SDS011;3362;50.892;10.692;2022-11-15T00:36:37;3.28;;;1.83;;
6651;SDS011;3362;50.892;10.692;2022-11-15T00:39:07;5.10;;;1.75;;
6651;SDS011;3362;50.892;10.692;2022-11-15T00:41:35;1.95;;;1.73;;
6651;SDS011;3362;50.892;10.692;2022-11-15T00:44:02;2.58;;;1.50;;
6651;SDS011;3362;50.892;10.692;2022-11-15T00:46:28;1.67;;;1.58;;
6651;SDS011;3362;50.892;10.692;2022-11-15T00:48:54;3.58;;;1.80;;
6651;SDS011;3362;50.892;10.692;2022-11-15T00:51:20;2.03;;;1.67;;
6651;SDS011;3362;50.892;10.692;2022-11-15T00:53:47;2.92;;;1.60;;
6651;SDS011;3362;50.892;10.692;2022-11-15T00:56:14;3.08;;;1.45;;
6651;SDS011;3362;50.892;10.692;2022-11-15T00:58:41;4.18;;;2.17;;
6651;SDS011;3362;50.892;10.692;2022-11-15T01:01:08;3.38;;;1.45;;
6651;SDS011;3362;50.892;10.692;2022-11-15T01:03:34;3.85;;;1.70;;
6651;SDS011;3362;50.892;10.692;2022-11-15T01:06:01;3.72;;;1.80;;
6651;SDS011;3362;50.892;10.692;2022-11-15T01:08:27;2.92;;;1.52;;
6651;SDS011;3362;50.892;10.692;2022-11-15T01:10:53;3.42;;;1.70;;
6651;SDS011;3362;50.892;10.692;2022-11-15T01:13:21;6.82;;;2.13;;
6651;SDS011;3362;50.892;10.692;2022-11-15T01:15:48;2.08;;;1.58;;
6651;SDS011;3362;50.892;10.692;2022-11-15T01:18:14;3.92;;;1.77;;
6651;SDS011;3362;50.892;10.692;2022-11-15T01:20:40;4.13;;;1.67;;
6651;SDS011;3362;50.892;10.692;2022-11-15T01:23:07;5.63;;;1.77;;
6651;SDS011;3362;50.892;10.692;2022-11-15T01:25:33;1.92;;;1.40;;
6651;SDS011;3362;50.892;10.692;2022-11-15T01:28:00;2.72;;;1.92;;
6651;SDS011;3362;50.892;10.692;2022-11-15T01:30:27;2.08;;;1.75;;
6651;SDS011;3362;50.892;10.692;2022-11-15T01:32:54;3.28;;;1.33;;
6651;SDS011;3362;50.892;10.692;2022-11-15T01:35:20;3.42;;;1.67;;
6651;SDS011;3362;50.892;10.692;2022-11-15T01:54:52;3.15;;;2.20;;
6651;SDS011;3362;50.892;10.692;2022-11-15T01:57:19;2.10;;;1.63;;
6651;SDS011;3362;50.892;10.692;2022-11-15T01:59:45;3.05;;;1.85;;
6651;SDS011;3362;50.892;10.692;2022-11-15T02:02:12;4.50;;;1.90;;
6651;SDS011;3362;50.892;10.692;2022-11-15T02:04:40;3.28;;;2.13;;
6651;SDS011;3362;50.892;10.692;2022-11-15T02:07:07;2.38;;;1.40;;
6651;SDS011;3362;50.892;10.692;2022-11-15T02:09:35;3.80;;;1.63;;
6651;SDS011;3362;50.892;10.692;2022-11-15T02:12:03;5.03;;;1.73;;
6651;SDS011;3362;50.892;10.692;2022-11-15T02:14:29;1.70;;;1.55;;
6651;SDS011;3362;50.892;10.692;2022-11-15T02:16:58;2.72;;;1.77;;
6651;SDS011;3362;50.892;10.692;2022-11-15T02:19:35;7.18;;;1.95;;
6651;SDS011;3362;50.892;10.692;2022-11-15T02:22:09;4.38;;;1.25;;
6651;SDS011;3362;50.892;10.692;2022-11-15T02:24:45;2.58;;;1.42;;
6651;SDS011;3362;50.892;10.692;2022-11-15T02:32:58;2.20;;;1.70;;
6651;SDS011;3362;50.892;10.692;2022-11-15T02:35:29;4.45;;;1.98;;
6651;SDS011;3362;50.892;10.692;2022-11-15T02:37:56;1.90;;;1.38;;
6651;SDS011;3362;50.892;10.692;2022-11-15T02:40:26;3.47;;;1.97;;
6651;SDS011;3362;50.892;10.692;2022-11-15T02:42:55;2.05;;;1.50;;
6651;SDS011;3362;50.892;10.692;2022-11-15T02:45:38;2.63;;;1.80;;
6651;SDS011;3362;50.892;10.692;2022-11-15T02:48:06;2.60;;;1.92;;
6651;SDS011;3362;50.892;10.692;2022-11-15T02:50:33;2.05;;;1.67;;
6651;SDS011;3362;50.892;10.692;2022-11-15T02:53:00;3.35;;;2.00;;
6651;SDS011;3362;50.892;10.692;2022-11-15T02:55:27;3.13;;;1.60;;
6651;SDS011;3362;50.892;10.692;2022-11-15T02:57:56;3.90;;;2.00;;
6651;SDS011;3362;50.892;10.692;2022-11-15T03:00:24;3.85;;;1.63;;
6651;SDS011;3362;50.892;10.692;2022-11-15T03:02:57;2.70;;;1.25;;
6651;SDS011;3362;50.892;10.692;2022-11-15T03:05:33;2.33;;;1.50;;
6651;SDS011;3362;50.892;10.692;2022-11-15T03:08:01;3.50;;;1.92;;
6651;SDS011;3362;50.892;10.692;2022-11-15T03:10:32;2.60;;;1.80;;
6651;SDS011;3362;50.892;10.692;2022-11-15T03:13:02;3.15;;;1.88;;
6651;SDS011;3362;50.892;10.692;2022-11-15T03:15:31;5.57;;;1.60;;
6651;SDS011;3362;50.892;10.692;2022-11-15T03:17:59;4.18;;;1.63;;
6651;SDS011;3362;50.892;10.692;2022-11-15T03:20:26;2.30;;;1.67;;
6651;SDS011;3362;50.892;10.692;2022-11-15T03:22:55;2.05;;;1.42;;
6651;SDS011;3362;50.892;10.692;2022-11-15T03:25:24;4.03;;;1.58;;
6651;SDS011;3362;50.892;10.692;2022-11-15T03:27:51;2.30;;;1.48;;
6651;SDS011;3362;50.892;10.692;2022-11-15T03:30:18;2.85;;;1.55;;
6651;SDS011;3362;50.892;10.692;2022-11-15T03:32:46;1.85;;;1.52;;
6651;SDS011;3362;50.892;10.692;2022-11-15T03:35:13;2.83;;;1.70;;
6651;SDS011;3362;50.892;10.692;2022-11-15T03:37:42;3.45;;;1.90;;
6651;SDS011;3362;50.892;10.692;2022-11-15T03:40:13;4.25;;;1.70;;
6651;SDS011;3362;50.892;10.692;2022-11-15T03:42:41;4.00;;;1.63;;
6651;SDS011;3362;50.892;10.692;2022-11-15T03:45:09;3.05;;;1.70;;
6651;SDS011;3362;50.892;10.692;2022-11-15T03:47:38;2.00;;;1.40;;
6651;SDS011;3362;50.892;10.692;2022-11-15T03:50:07;5.55;;;2.15;;
6651;SDS011;3362;50.892;10.692;2022-11-15T03:52:34;2.10;;;1.15;;
6651;SDS011;3362;50.892;10.692;2022-11-15T03:55:01;2.75;;;1.70;;
6651;SDS011;3362;50.892;10.692;2022-11-15T03:57:29;1.98;;;1.20;;
6651;SDS011;3362;50.892;10.692;2022-11-15T03:59:56;1.65;;;1.50;;
6651;SDS011;3362;50.892;10.692;2022-11-15T04:02:22;3.47;;;1.83;;
6651;SDS011;3362;50.892;10.692;2022-11-15T04:04:49;6.68;;;2.50;;
6651;SDS011;3362;50.892;10.692;2022-11-15T04:07:15;6.82;;;2.50;;
6651;SDS011;3362;50.892;10.692;2022-11-15T04:09:41;5.78;;;3.55;;
6651;SDS011;3362;50.892;10.692;2022-11-15T04:12:21;6.77;;;4.00;;
6651;SDS011;3362;50.892;10.692;2022-11-15T04:14:57;5.63;;;3.23;;
6651;SDS011;3362;50.892;10.692;2022-11-15T04:17:36;3.35;;;2.38;;
6651;SDS011;3362;50.892;10.692;2022-11-15T04:20:03;5.40;;;2.20;;
6651;SDS011;3362;50.892;10.692;2022-11-15T04:22:47;5.40;;;2.38;;
6651;SDS011;3362;50.892;10.692;2022-11-15T04:25:30;4.03;;;2.63;;
6651;SDS011;3362;50.892;10.692;2022-11-15T04:27:57;5.20;;;2.50;;
6651;SDS011;3362;50.892;10.692;2022-11-15T04:30:24;2.30;;;1.73;;
6651;SDS011;3362;50.892;10.692;2022-11-15T04:32:51;4.35;;;1.63;;
6651;SDS011;3362;50.892;10.692;2022-11-15T04:35:17;3.60;;;2.10;;
6651;SDS011;3362;50.892;10.692;2022-11-15T04:37:43;2.92;;;1.63;;
6651;SDS011;3362;50.892;10.692;2022-11-15T04:40:10;4.70;;;1.85;;
6651;SDS011;3362;50.892;10.692;2022-11-15T04:42:36;3.50;;;1.80;;
6651;SDS011;3362;50.892;10.692;2022-11-15T04:45:03;2.95;;;1.90;;
6651;SDS011;3362;50.892;10.692;2022-11-15T04:47:30;2.55;;;1.65;;
6651;SDS011;3362;50.892;10.692;2022-11-15T04:49:57;3.83;;;1.52;;
6651;SDS011;3362;50.892;10.692;2022-11-15T04:52:23;2.60;;;1.75;;
6651;SDS011;3362;50.892;10.692;2022-11-15T04:54:49;2.23;;;1.83;;
6651;SDS011;3362;50.892;10.692;2022-11-15T04:57:15;2.40;;;1.60;;
6651;SDS011;3362;50.892;10.692;2022-11-15T04:59:42;3.60;;;1.97;;
6651;SDS011;3362;50.892;10.692;2022-11-15T05:02:08;4.10;;;1.77;;
6651;SDS011;3362;50.892;10.692;2022-11-15T05:04:36;3.00;;;1.60;;
6651;SDS011;3362;50.892;10.692;2022-11-15T05:07:01;4.30;;;1.60;;
6651;SDS011;3362;50.892;10.692;2022-11-15T05:09:27;3.53;;;1.90;;
6651;SDS011;3362;50.892;10.692;2022-11-15T05:11:54;2.58;;;1.75;;
6651;SDS011;3362;50.892;10.692;2022-11-15T05:14:20;5.68;;;1.95;;
6651;SDS011;3362;50.892;10.692;2022-11-15T05:16:46;2.85;;;1.70;;
6651;SDS011;3362;50.892;10.692;2022-11-15T05:19:13;3.50;;;1.92;;
6651;SDS011;3362;50.892;10.692;2022-11-15T07:01:33;2.83;;;1.63;;
6651;SDS011;3362;50.892;10.692;2022-11-15T07:03:59;5.07;;;1.90;;
6651;SDS011;3362;50.892;10.692;2022-11-15T07:06:25;2.87;;;1.97;;
6651;SDS011;3362;50.892;10.692;2022-11-15T07:08:52;3.50;;;1.70;;
6651;SDS011;3362;50.892;10.692;2022-11-15T07:11:18;3.90;;;1.85;;
6651;SDS011;3362;50.892;10.692;2022-11-15T07:16:11;4.30;;;2.40;;
6651;SDS011;3362;50.892;10.692;2022-11-15T07:33:15;4.15;;;2.42;;
6651;SDS011;3362;50.892;10.692;2022-11-15T07:35:41;3.17;;;2.20;;
6651;SDS011;3362;50.892;10.692;2022-11-15T07:38:11;2.92;;;2.13;;
6651;SDS011;3362;50.892;10.692;2022-11-15T07:40:37;4.75;;;2.40;;
6651;SDS011;3362;50.892;10.692;2022-11-15T07:43:04;5.60;;;2.40;;
6651;SDS011;3362;50.892;10.692;2022-11-15T07:45:31;7.40;;;2.60;;
6651;SDS011;3362;50.892;10.692;2022-11-15T07:47:59;6.00;;;2.80;;
6651;SDS011;3362;50.892;10.692;2022-11-15T07:50:27;6.07;;;2.90;;
6651;SDS011;3362;50.892;10.692;2022-11-15T07:52:55;7.10;;;4.20;;
6651;SDS011;3362;50.892;10.692;2022-11-15T07:55:21;10.65;;;5.13;;
6651;SDS011;3362;50.892;10.692;2022-11-15T07:57:47;9.38;;;5.72;;
6651;SDS011;3362;50.892;10.692;2022-11-15T08:00:14;11.25;;;5.82;;
6651;SDS011;3362;50.892;10.692;2022-11-15T08:02:41;10.57;;;6.88;;
6651;SDS011;3362;50.892;10.692;2022-11-15T08:05:07;7.35;;;4.22;;
6651;SDS011;3362;50.892;10.692;2022-11-15T08:07:35;13.43;;;6.03;;
6651;SDS011;3362;50.892;10.692;2022-11-15T08:10:03;8.95;;;4.78;;
6651;SDS011;3362;50.892;10.692;2022-11-15T08:12:30;3.88;;;2.97;;
6651;SDS011;3362;50.892;10.692;2022-11-15T08:14:57;7.57;;;3.05;;
6651;SDS011;3362;50.892;10.692;2022-11-15T08:17:23;2.53;;;1.73;;
6651;SDS011;3362;50.892;10.692;2022-11-15T08:19:49;4.32;;;1.58;;
6651;SDS011;3362;50.892;10.692;2022-11-15T08:22:18;6.40;;;1.63;;
6651;SDS011;3362;50.892;10.692;2022-11-15T08:24:46;2.28;;;1.40;;
6651;SDS011;3362;50.892;10.692;2022-11-15T08:27:12;3.63;;;1.70;;
6651;SDS011;3362;50.892;10.692;2022-11-15T08:29:41;1.58;;;1.48;;
6651;SDS011;3362;50.892;10.692;2022-11-15T08:32:07;2.83;;;1.70;;
6651;SDS011;3362;50.892;10.692;2022-11-15T08:34:34;4.10;;;1.67;;
6651;SDS011;3362;50.892;10.692;2022-11-15T08:37:00;3.03;;;1.20;;
6651;SDS011;3362;50.892;10.692;2022-11-15T08:39:26;2.05;;;1.50;;
6651;SDS011;3362;50.892;10.692;2022-11-15T08:41:54;4.10;;;1.73;;
6651;SDS011;3362;50.892;10.692;2022-11-15T08:44:21;2.20;;;1.65;;
6651;SDS011;3362;50.892;10.692;2022-11-15T08:46:47;4.50;;;1.50;;
6651;SDS011;3362;50.892;10.692;2022-11-15T08:49:13;2.30;;;1.35;;
6651;SDS011;3362;50.892;10.692;2022-11-15T08:51:40;2.08;;;1.58;;
6651;SDS011;3362;50.892;10.692;2022-11-15T08:54:06;2.75;;;1.50;;
6651;SDS011;3362;50.892;10.692;2022-11-15T08:56:32;1.77;;;1.38;;
6651;SDS011;3362;50.892;10.692;2022-11-15T08:59:00;1.65;;;1.20;;
6651;SDS011;3362;50.892;10.692;2022-11-15T09:01:26;1.73;;;1.25;;
6651;SDS011;3362;50.892;10.692;2022-11-15T09:03:52;3.15;;;1.40;;
6651;SDS011;3362;50.892;10.692;2022-11-15T09:06:19;2.10;;;1.38;;
6651;SDS011;3362;50.892;10.692;2022-11-15T09:08:46;5.47;;;1.50;;
6651;SDS011;3362;50.892;10.692;2022-11-15T09:11:13;1.17;;;0.85;;
6651;SDS011;3362;50.892;10.692;2022-11-15T09:13:41;2.58;;;1.48;;
6651;SDS011;3362;50.892;10.692;2022-11-15T09:16:09;2.22;;;1.30;;
6651;SDS011;3362;50.892;10.692;2022-11-15T09:18:37;3.33;;;1.58;;
6651;SDS011;3362;50.892;10.692;2022-11-15T09:21:03;2.58;;;1.38;;
6651;SDS011;3362;50.892;10.692;2022-11-15T09:23:29;2.65;;;1.35;;
6651;SDS011;3362;50.892;10.692;2022-11-15T09:25:59;3.10;;;1.73;;
6651;SDS011;3362;50.892;10.692;2022-11-15T09:28:26;2.22;;;1.50;;
6651;SDS011;3362;50.892;10.692;2022-11-15T09:30:55;3.40;;;1.08;;
6651;SDS011;3362;50.892;10.692;2022-11-15T09:33:22;1.70;;;0.93;;
6651;SDS011;3362;50.892;10.692;2022-11-15T09:35:49;2.78;;;1.45;;
6651;SDS011;3362;50.892;10.692;2022-11-15T09:38:15;3.22;;;1.60;;
6651;SDS011;3362;50.892;10.692;2022-11-15T09:40:41;1.98;;;1.52;;
6651;SDS011;3362;50.892;10.692;2022-11-15T09:43:11;4.90;;;1.77;;
6651;SDS011;3362;50.892;10.692;2022-11-15T09:45:47;2.03;;;1.20;;
6651;SDS011;3362;50.892;10.692;2022-11-15T09:48:27;2.75;;;1.40;;
6651;SDS011;3362;50.892;10.692;2022-11-15T09:50:56;1.75;;;1.05;;
6651;SDS011;3362;50.892;10.692;2022-11-15T09:53:29;4.45;;;2.20;;
6651;SDS011;3362;50.892;10.692;2022-11-15T09:55:58;3.85;;;2.25;;
6651;SDS011;3362;50.892;10.692;2022-11-15T09:58:26;4.05;;;1.85;;
6651;SDS011;3362;50.892;10.692;2022-11-15T10:00:53;5.70;;;1.70;;
6651;SDS011;3362;50.892;10.692;2022-11-15T10:03:25;2.53;;;1.75;;
6651;SDS011;3362;50.892;10.692;2022-11-15T10:05:53;4.20;;;2.30;;
6651;SDS011;3362;50.892;10.692;2022-11-15T10:11:05;3.58;;;1.92;;
6651;SDS011;3362;50.892;10.692;2022-11-15T10:13:33;4.78;;;2.75;;
6651;SDS011;3362;50.892;10.692;2022-11-15T10:16:03;4.03;;;2.42;;
6651;SDS011;3362;50.892;10.692;2022-11-15T10:18:32;2.55;;;2.33;;
6651;SDS011;3362;50.892;10.692;2022-11-15T10:21:02;10.82;;;2.40;;
6651;SDS011;3362;50.892;10.692;2022-11-15T10:23:34;4.60;;;2.65;;
6651;SDS011;3362;50.892;10.692;2022-11-15T10:26:01;4.60;;;2.60;;
6651;SDS011;3362;50.892;10.692;2022-11-15T10:28:28;4.68;;;2.75;;
6651;SDS011;3362;50.892;10.692;2022-11-15T10:30:55;4.15;;;2.22;;
6651;SDS011;3362;50.892;10.692;2022-11-15T10:33:26;6.22;;;2.67;;
6651;SDS011;3362;50.892;10.692;2022-11-15T10:38:42;4.75;;;1.92;;
6651;SDS011;3362;50.892;10.692;2022-11-15T10:41:19;4.28;;;2.25;;
6651;SDS011;3362;50.892;10.692;2022-11-15T10:43:46;9.85;;;3.13;;
6651;SDS011;3362;50.892;10.692;2022-11-15T10:46:26;6.13;;;3.22;;
6651;SDS011;3362;50.892;10.692;2022-11-15T10:48:53;4.38;;;2.80;;
6651;SDS011;3362;50.892;10.692;2022-11-15T10:51:19;8.70;;;2.60;;
6651;SDS011;3362;50.892;10.692;2022-11-15T10:53:48;4.03;;;1.80;;
6651;SDS011;3362;50.892;10.692;2022-11-15T10:56:15;3.63;;;2.15;;
6651;SDS011;3362;50.892;10.692;2022-11-15T10:58:49;3.97;;;2.67;;
6651;SDS011;3362;50.892;10.692;2022-11-15T11:01:17;4.18;;;2.63;;
6651;SDS011;3362;50.892;10.692;2022-11-15T11:03:44;4.22;;;2.25;;
6651;SDS011;3362;50.892;10.692;2022-11-15T11:06:11;5.63;;;2.53;;
6651;SDS011;3362;50.892;10.692;2022-11-15T11:08:37;4.57;;;2.03;;
6651;SDS011;3362;50.892;10.692;2022-11-15T11:11:05;4.53;;;2.20;;
6651;SDS011;3362;50.892;10.692;2022-11-15T11:13:34;5.20;;;2.40;;
6651;SDS011;3362;50.892;10.692;2022-11-15T11:16:08;2.50;;;1.90;;
6651;SDS011;3362;50.892;10.692;2022-11-15T11:18:42;5.22;;;1.90;;
6651;SDS011;3362;50.892;10.692;2022-11-15T11:21:13;2.03;;;1.30;;
6651;SDS011;3362;50.892;10.692;2022-11-15T11:23:43;5.32;;;2.08;;
6651;SDS011;3362;50.892;10.692;2022-11-15T11:26:16;4.28;;;1.70;;
6651;SDS011;3362;50.892;10.692;2022-11-15T11:28:46;4.35;;;1.27;;
6651;SDS011;3362;50.892;10.692;2022-11-15T11:31:18;2.13;;;1.20;;
6651;SDS011;3362;50.892;10.692;2022-11-15T11:33:48;3.30;;;1.83;;
6651;SDS011;3362;50.892;10.692;2022-11-15T11:36:18;3.40;;;1.80;;
6651;SDS011;3362;50.892;10.692;2022-11-15T11:38:57;2.88;;;1.80;;
6651;SDS011;3362;50.892;10.692;2022-11-15T11:41:42;6.65;;;1.67;;
6651;SDS011;3362;50.892;10.692;2022-11-15T11:44:15;4.60;;;1.50;;
6651;SDS011;3362;50.892;10.692;2022-11-15T11:46:47;3.63;;;1.42;;
6651;SDS011;3362;50.892;10.692;2022-11-15T11:49:15;2.65;;;1.70;;
6651;SDS011;3362;50.892;10.692;2022-11-15T11:51:43;2.28;;;1.27;;
6651;SDS011;3362;50.892;10.692;2022-11-15T11:54:12;2.25;;;1.52;;
6651;SDS011;3362;50.892;10.692;2022-11-15T11:56:41;6.82;;;2.05;;
6651;SDS011;3362;50.892;10.692;2022-11-15T11:59:09;2.85;;;1.75;;
6651;SDS011;3362;50.892;10.692;2022-11-15T12:01:39;2.42;;;1.60;;
6651;SDS011;3362;50.892;10.692;2022-11-15T12:04:09;2.25;;;1.45;;
6651;SDS011;3362;50.892;10.692;2022-11-15T12:06:38;2.97;;;1.85;;
6651;SDS011;3362;50.892;10.692;2022-11-15T12:09:11;2.78;;;1.95;;
6651;SDS011;3362;50.892;10.692;2022-11-15T12:11:42;2.20;;;1.40;;
6651;SDS011;3362;50.892;10.692;2022-11-15T12:14:13;5.20;;;1.77;;
6651;SDS011;3362;50.892;10.692;2022-11-15T12:16:42;5.03;;;1.60;;
6651;SDS011;3362;50.892;10.692;2022-11-15T12:19:08;1.88;;;1.33;;
6651;SDS011;3362;50.892;10.692;2022-11-15T12:21:36;2.28;;;1.42;;
6651;SDS011;3362;50.892;10.692;2022-11-15T12:24:06;6.25;;;1.77;;
6651;SDS011;3362;50.892;10.692;2022-11-15T12:26:35;2.55;;;1.35;;
6651;SDS011;3362;50.892;10.692;2022-11-15T12:29:05;5.63;;;2.72;;
6651;SDS011;3362;50.892;10.692;2022-11-15T12:31:36;3.17;;;1.77;;
6651;SDS011;3362;50.892;10.692;2022-11-15T12:34:04;7.95;;;2.08;;
6651;SDS011;3362;50.892;10.692;2022-11-15T12:36:39;3.90;;;2.00;;
6651;SDS011;3362;50.892;10.692;2022-11-15T12:39:06;3.70;;;1.80;;
6651;SDS011;3362;50.892;10.692;2022-11-15T12:41:34;4.57;;;2.85;;
6651;SDS011;3362;50.892;10.692;2022-11-15T12:44:01;2.45;;;1.70;;
6651;SDS011;3362;50.892;10.692;2022-11-15T12:52:09;5.47;;;2.05;;
6651;SDS011;3362;50.892;10.692;2022-11-15T12:54:55;3.35;;;1.95;;
6651;SDS011;3362;50.892;10.692;2022-11-15T13:03:23;3.55;;;1.75;;
6651;SDS011;3362;50.892;10.692;2022-11-15T13:06:06;4.03;;;1.67;;
6651;SDS011;3362;50.892;10.692;2022-11-15T13:08:38;2.88;;;1.70;;
6651;SDS011;3362;50.892;10.692;2022-11-15T13:13:46;3.15;;;0.98;;
6651;SDS011;3362;50.892;10.692;2022-11-15T13:16:14;1.50;;;0.80;;
6651;SDS011;3362;50.892;10.692;2022-11-15T13:18:43;1.35;;;0.70;;
6651;SDS011;3362;50.892;10.692;2022-11-15T13:21:19;0.85;;;0.80;;
6651;SDS011;3362;50.892;10.692;2022-11-15T13:24:09;1.30;;;0.73;;
6651;SDS011;3362;50.892;10.692;2022-11-15T13:26:37;4.13;;;1.02;;
6651;SDS011;3362;50.892;10.692;2022-11-15T13:29:04;3.25;;;0.90;;
6651;SDS011;3362;50.892;10.692;2022-11-15T13:31:34;1.80;;;0.98;;
6651;SDS011;3362;50.892;10.692;2022-11-15T13:34:03;2.70;;;0.90;;
6651;SDS011;3362;50.892;10.692;2022-11-15T13:36:30;5.35;;;0.70;;
6651;SDS011;3362;50.892;10.692;2022-11-15T13:38:59;0.93;;;0.80;;
6651;SDS011;3362;50.892;10.692;2022-11-15T13:41:27;1.63;;;0.88;;
6651;SDS011;3362;50.892;10.692;2022-11-15T13:43:54;0.60;;;0.60;;
6651;SDS011;3362;50.892;10.692;2022-11-15T13:46:21;1.15;;;0.60;;
6651;SDS011;3362;50.892;10.692;2022-11-15T13:48:51;0.85;;;0.82;;
6651;SDS011;3362;50.892;10.692;2022-11-15T13:51:18;1.25;;;1.00;;
6651;SDS011;3362;50.892;10.692;2022-11-15T13:53:47;1.63;;;0.80;;
6651;SDS011;3362;50.892;10.692;2022-11-15T13:56:14;3.00;;;0.80;;
6651;SDS011;3362;50.892;10.692;2022-11-15T13:58:43;1.00;;;0.68;;
6651;SDS011;3362;50.892;10.692;2022-11-15T14:01:13;1.52;;;0.85;;
6651;SDS011;3362;50.892;10.692;2022-11-15T14:03:41;2.35;;;1.30;;
6651;SDS011;3362;50.892;10.692;2022-11-15T14:06:12;2.00;;;0.82;;
6651;SDS011;3362;50.892;10.692;2022-11-15T14:08:40;0.60;;;0.60;;
6651;SDS011;3362;50.892;10.692;2022-11-15T14:11:08;5.93;;;1.00;;
6651;SDS011;3362;50.892;10.692;2022-11-15T14:13:35;3.67;;;1.13;;
6651;SDS011;3362;50.892;10.692;2022-11-15T14:16:16;1.55;;;0.98;;
6651;SDS011;3362;50.892;10.692;2022-11-15T14:18:45;1.02;;;0.80;;
6651;SDS011;3362;50.892;10.692;2022-11-15T14:21:11;2.13;;;1.08;;
6651;SDS011;3362;50.892;10.692;2022-11-15T14:23:38;0.80;;;0.73;;
6651;SDS011;3362;50.892;10.692;2022-11-15T14:26:04;2.15;;;0.70;;
6651;SDS011;3362;50.892;10.692;2022-11-15T14:28:31;1.63;;;1.10;;
6651;SDS011;3362;50.892;10.692;2022-11-15T14:31:01;2.00;;;0.93;;
6651;SDS011;3362;50.892;10.692;2022-11-15T14:33:30;1.02;;;0.93;;
6651;SDS011;3362;50.892;10.692;2022-11-15T14:35:57;1.55;;;0.90;;
6651;SDS011;3362;50.892;10.692;2022-11-15T14:38:24;1.00;;;0.70;;
6651;SDS011;3362;50.892;10.692;2022-11-15T14:40:50;0.93;;;0.77;;
6651;SDS011;3362;50.892;10.692;2022-11-15T14:43:16;1.05;;;0.80;;
6651;SDS011;3362;50.892;10.692;2022-11-15T14:45:43;1.05;;;0.73;;
6651;SDS011;3362;50.892;10.692;2022-11-15T14:48:09;0.70;;;0.70;;
6651;SDS011;3362;50.892;10.692;2022-11-15T14:50:37;1.25;;;0.88;;
6651;SDS011;3362;50.892;10.692;2022-11-15T14:53:03;1.20;;;1.00;;
6651;SDS011;3362;50.892;10.692;2022-11-15T14:55:31;2.70;;;1.10;;
6651;SDS011;3362;50.892;10.692;2022-11-15T14:58:00;1.50;;;1.02;;
6651;SDS011;3362;50.892;10.692;2022-11-15T15:00:27;2.63;;;0.90;;
6651;SDS011;3362;50.892;10.692;2022-11-15T15:02:54;1.75;;;0.88;;
6651;SDS011;3362;50.892;10.692;2022-11-15T15:05:21;3.17;;;1.05;;
6651;SDS011;3362;50.892;10.692;2022-11-15T15:07:49;2.00;;;1.30;;
6651;SDS011;3362;50.892;10.692;2022-11-15T15:10:16;2.03;;;1.30;;
6651;SDS011;3362;50.892;10.692;2022-11-15T15:12:43;1.85;;;1.02;;
6651;SDS011;3362;50.892;10.692;2022-11-15T15:15:12;1.77;;;0.90;;
6651;SDS011;3362;50.892;10.692;2022-11-15T15:17:39;4.53;;;1.27;;
6651;SDS011;3362;50.892;10.692;2022-11-15T15:20:05;1.60;;;1.25;;
6651;SDS011;3362;50.892;10.692;2022-11-15T15:22:32;1.80;;;1.25;;
6651;SDS011;3362;50.892;10.692;2022-11-15T15:25:00;2.05;;;1.00;;
6651;SDS011;3362;50.892;10.692;2022-11-15T15:27:26;3.33;;;1.58;;
6651;SDS011;3362;50.892;10.692;2022-11-15T15:29:52;2.90;;;1.58;;
6651;SDS011;3362;50.892;10.692;2022-11-15T15:32:18;1.40;;;1.30;;
6651;SDS011;3362;50.892;10.692;2022-11-15T15:34:46;2.17;;;1.35;;
6651;SDS011;3362;50.892;10.692;2022-11-15T15:37:18;2.35;;;1.08;;
6651;SDS011;3362;50.892;10.692;2022-11-15T15:39:47;1.15;;;1.00;;
6651;SDS011;3362;50.892;10.692;2022-11-15T15:42:15;2.00;;;1.10;;
6651;SDS011;3362;50.892;10.692;2022-11-15T15:44:42;1.10;;;1.00;;
6651;SDS011;3362;50.892;10.692;2022-11-15T15:47:09;1.52;;;0.88;;
6651;SDS011;3362;50.892;10.692;2022-11-15T15:49:37;0.95;;;0.85;;
6651;SDS011;3362;50.892;10.692;2022-11-15T15:52:03;0.98;;;0.90;;
6651;SDS011;3362;50.892;10.692;2022-11-15T15:54:30;2.20;;;1.02;;
6651;SDS011;3362;50.892;10.692;2022-11-15T15:56:56;2.05;;;1.10;;
6651;SDS011;3362;50.892;10.692;2022-11-15T15:59:24;1.38;;;1.02;;
6651;SDS011;3362;50.892;10.692;2022-11-15T16:01:50;2.72;;;1.10;;
6651;SDS011;3362;50.892;10.692;2022-11-15T16:04:16;2.17;;;1.20;;
6651;SDS011;3362;50.892;10.692;2022-11-15T16:06:43;4.50;;;1.80;;
6651;SDS011;3362;50.892;10.692;2022-11-15T16:09:11;5.13;;;2.53;;
6651;SDS011;3362;50.892;10.692;2022-11-15T16:11:38;7.78;;;2.55;;
6651;SDS011;3362;50.892;10.692;2022-11-15T16:14:05;4.22;;;2.55;;
6651;SDS011;3362;50.892;10.692;2022-11-15T16:16:32;3.90;;;2.40;;
6651;SDS011;3362;50.892;10.692;2022-11-15T16:18:59;2.05;;;1.75;;
6651;SDS011;3362;50.892;10.692;2022-11-15T16:21:26;3.78;;;2.05;;
6651;SDS011;3362;50.892;10.692;2022-11-15T16:23:53;3.63;;;1.95;;
6651;SDS011;3362;50.892;10.692;2022-11-15T16:26:20;5.95;;;2.35;;
6651;SDS011;3362;50.892;10.692;2022-11-15T16:28:47;7.57;;;3.63;;
6651;SDS011;3362;50.892;10.692;2022-11-15T16:31:13;9.27;;;3.97;;
6651;SDS011;3362;50.892;10.692;2022-11-15T16:33:41;11.85;;;5.13;;
6651;SDS011;3362;50.892;10.692;2022-11-15T16:36:13;9.55;;;4.38;;
6651;SDS011;3362;50.892;10.692;2022-11-15T16:38:40;11.77;;;5.30;;
6651;SDS011;3362;50.892;10.692;2022-11-15T16:41:06;11.75;;;4.68;;
6651;SDS011;3362;50.892;10.692;2022-11-15T16:43:33;9.75;;;5.00;;
6651;SDS011;3362;50.892;10.692;2022-11-15T16:45:59;14.73;;;5.30;;
6651;SDS011;3362;50.892;10.692;2022-11-15T16:48:32;9.07;;;4.50;;
6651;SDS011;3362;50.892;10.692;2022-11-15T16:51:00;13.13;;;3.80;;
6651;SDS011;3362;50.892;10.692;2022-11-15T16:53:28;10.15;;;4.82;;
6651;SDS011;3362;50.892;10.692;2022-11-15T16:55:55;9.43;;;3.83;;
6651;SDS011;3362;50.892;10.692;2022-11-15T16:58:21;6.28;;;3.75;;
6651;SDS011;3362;50.892;10.692;2022-11-15T17:00:49;5.45;;;3.78;;
6651;SDS011;3362;50.892;10.692;2022-11-15T17:03:15;6.22;;;2.95;;
6651;SDS011;3362;50.892;10.692;2022-11-15T17:05:42;7.43;;;3.40;;
6651;SDS011;3362;50.892;10.692;2022-11-15T17:08:09;4.30;;;3.33;;
6651;SDS011;3362;50.892;10.692;2022-11-15T17:10:37;5.70;;;3.58;;
6651;SDS011;3362;50.892;10.692;2022-11-15T17:13:04;5.68;;;3.17;;
6651;SDS011;3362;50.892;10.692;2022-11-15T17:15:30;3.88;;;2.88;;
6651;SDS011;3362;50.892;10.692;2022-11-15T17:17:56;6.97;;;2.75;;
6651;SDS011;3362;50.892;10.692;2022-11-15T17:20:23;7.75;;;3.50;;
6651;SDS011;3362;50.892;10.692;2022-11-15T17:22:50;5.75;;;3.75;;
6651;SDS011;3362;50.892;10.692;2022-11-15T17:25:18;7.65;;;3.88;;
6651;SDS011;3362;50.892;10.692;2022-11-15T17:27:45;8.45;;;4.88;;
6651;SDS011;3362;50.892;10.692;2022-11-15T17:30:11;7.28;;;4.47;;
6651;SDS011;3362;50.892;10.692;2022-11-15T17:32:39;6.82;;;4.45;;
6651;SDS011;3362;50.892;10.692;2022-11-15T17:35:05;9.13;;;4.82;;
6651;SDS011;3362;50.892;10.692;2022-11-15T17:37:32;7.32;;;4.43;;
6651;SDS011;3362;50.892;10.692;2022-11-15T17:39:58;8.15;;;5.13;;
6651;SDS011;3362;50.892;10.692;2022-11-15T17:42:26;6.38;;;3.97;;
6651;SDS011;3362;50.892;10.692;2022-11-15T17:44:52;5.28;;;3.22;;
6651;SDS011;3362;50.892;10.692;2022-11-15T17:47:19;5.05;;;3.67;;